»·PEaware :: N5157Z KDLO-KSBP

N5157Z :: KDLO-KSBP

FLIGHT INFORMATION

Flight Status: Arrived
Operator: Privately registered:
United States
More flights under this callsign
Pilot: Matt L. (27725)
Aircraft: BEECH AIRCRAFT BARON
(BE58)
More flights by this aircraft type
Origin: KDLO Delano Mun
United States
Destination: KSBP San Luis Co Regl
United States
More flights between these airports :: More routes between these airports
Route: AVE
File this flight plan on PilotEdge
Remarks:
Altitude:
(Current/Filed)
3,500ft
Speed:
(Current/Filed)
170kts
Departed: 25-Mar-20 10:00 AM
Arrived: 25-Mar-20 10:33 AM
Distance/Time
Traveled:
75nm/0:33
Distance/Time
To Go:
Arrived

Flight Plot

Page will automatically refresh every two minutes.

Flight plan parsing failed; only flown route is shown


Map Options




Map Legend


Flown Route
Filed Route
Departure Airport
Arrival Airport
Navaid (VOR, NDB)
Fix

Horizontal Profiles

Position Reports

Time Latitude Longitude Heading Altitude Ground
Speed
25-Mar-20 09:52 35.746199 -119.239214 69 316ft 0kts
25-Mar-20 09:53 35.746199 -119.239214 69 316ft 0kts
25-Mar-20 09:54 35.746199 -119.239214 69 316ft 0kts
25-Mar-20 09:55 35.746199 -119.239214 69 316ft 0kts
25-Mar-20 09:56 35.746199 -119.239214 69 316ft 0kts
25-Mar-20 09:57 35.749037 -119.239909 338 316ft 22kts
25-Mar-20 09:58 35.751455 -119.240127 1 316ft 0kts
25-Mar-20 09:59 35.748267 -119.237818 159 316ft 93kts
25-Mar-20 10:00 35.737745 -119.212936 2 1483ft 124kts
25-Mar-20 10:01 35.777128 -119.224115 325 2222ft 157kts
25-Mar-20 10:02 35.784489 -119.270086 223 2467ft 158kts
25-Mar-20 10:03 35.754338 -119.307660 245 2588ft 156kts
25-Mar-20 10:04 35.735278 -119.357057 246 2540ft 160kts
25-Mar-20 10:05 35.716288 -119.406925 246 2531ft 160kts
25-Mar-20 10:06 35.697269 -119.456885 246 2530ft 160kts
25-Mar-20 10:07 35.683440 -119.508502 261 2549ft 158kts
25-Mar-20 10:08 35.676436 -119.562735 261 2535ft 159kts
25-Mar-20 10:09 35.669492 -119.616695 261 2531ft 160kts
25-Mar-20 10:10 35.661212 -119.670608 252 2528ft 160kts
25-Mar-20 10:12 35.647199 -119.722618 252 2531ft 160kts
25-Mar-20 10:13 35.633024 -119.775025 252 2531ft 162kts
25-Mar-20 10:14 35.618518 -119.827819 252 2526ft 163kts
25-Mar-20 10:15 35.603742 -119.880897 252 2522ft 165kts
25-Mar-20 10:16 35.588794 -119.934607 252 2519ft 166kts
25-Mar-20 10:17 35.573882 -119.988850 252 2472ft 170kts
25-Mar-20 10:18 35.558731 -120.045026 252 2299ft 174kts
25-Mar-20 10:19 35.543802 -120.100570 252 2373ft 166kts
25-Mar-20 10:20 35.529475 -120.153499 252 2567ft 162kts
25-Mar-20 10:21 35.514475 -120.209090 252 2330ft 173kts
25-Mar-20 10:22 35.499533 -120.264579 252 2340ft 169kts
25-Mar-20 10:23 35.482991 -120.318410 244 2354ft 168kts
25-Mar-20 10:24 35.461809 -120.368569 243 2506ft 165kts
25-Mar-20 10:25 35.440315 -120.419238 243 2507ft 169kts
25-Mar-20 10:26 35.417781 -120.470345 238 2503ft 170kts
25-Mar-20 10:27 35.394611 -120.514251 241 3457ft 122kts
25-Mar-20 10:28 35.360409 -120.542915 192 3382ft 168kts
25-Mar-20 10:29 35.314235 -120.548044 177 3567ft 168kts
25-Mar-20 10:30 35.267872 -120.549709 195 3424ft 168kts
25-Mar-20 10:31 35.225906 -120.573814 209 2047ft 161kts
25-Mar-20 10:31 35.216871 -120.605131 296 956ft 118kts
25-Mar-20 10:33 35.234895 -120.636626 326 216ft 26kts
25-Mar-20 10:33 35.235296 -120.636149 81 216ft 0kts
25-Mar-20 10:35 35.235351 -120.634842 200 216ft 0kts
25-Mar-20 10:35 35.235351 -120.634842 200 216ft 0kts
25-Mar-20 10:36 35.235351 -120.634842 200 216ft 0kts
25-Mar-20 10:37 35.235351 -120.634842 200 216ft 0kts
25-Mar-20 10:38 35.235351 -120.634842 200 216ft 0kts
25-Mar-20 10:39 35.235351 -120.634842 200 216ft 0kts
25-Mar-20 10:40 35.235351 -120.634842 200 216ft 0kts
25-Mar-20 10:41 35.235351 -120.634842 200 216ft 0kts
25-Mar-20 10:42 35.235351 -120.634842 200 216ft 0kts
25-Mar-20 10:43 35.235351 -120.634842 200 216ft 0kts
25-Mar-20 10:44 35.235351 -120.634842 200 216ft 0kts
25-Mar-20 10:45 35.235351 -120.634842 200 216ft 0kts
25-Mar-20 10:46 35.235351 -120.634842 200 216ft 0kts

Navigation Log

Ident Type
Flight plan parsing failed, navigation log unavailable